createdAt,value
2017-03-31T00:00:48.345Z,13.94
2017-03-31T00:01:48.335Z,13.79
2017-03-31T00:02:48.008Z,13.79
2017-03-31T00:03:48.309Z,13.84
2017-03-31T00:04:48.296Z,13.81
2017-03-31T00:05:48.287Z,13.87
2017-03-31T00:06:48.273Z,13.71
2017-03-31T00:07:48.261Z,13.79
2017-03-31T00:08:48.245Z,13.73
2017-03-31T00:09:48.232Z,13.77
2017-03-31T00:10:48.224Z,13.73
2017-03-31T00:11:48.260Z,13.71
2017-03-31T00:12:48.206Z,13.71
2017-03-31T00:13:48.183Z,13.76
2017-03-31T00:14:48.171Z,13.69
2017-03-31T00:15:48.159Z,13.69
2017-03-31T00:16:47.834Z,13.79
2017-03-31T00:17:47.820Z,13.76
2017-03-31T00:18:48.122Z,13.65
2017-03-31T00:19:48.116Z,13.73
2017-03-31T00:20:48.101Z,13.7
2017-03-31T00:21:48.083Z,13.74
2017-03-31T00:22:48.071Z,13.74
2017-03-31T00:23:48.059Z,13.79
2017-03-31T00:24:48.051Z,13.76
2017-03-31T00:25:48.036Z,13.67
2017-03-31T00:26:47.710Z,13.65
2017-03-31T00:27:48.005Z,13.7
2017-03-31T00:28:48.000Z,13.7
2017-03-31T00:29:47.673Z,13.65
2017-03-31T00:30:48.026Z,13.63
2017-03-31T00:31:47.661Z,13.61
2017-03-31T00:32:47.946Z,13.62
2017-03-31T00:33:47.938Z,13.58
2017-03-31T00:34:47.918Z,13.61
2017-03-31T00:35:47.904Z,13.59
2017-03-31T00:36:47.894Z,13.63
2017-03-31T00:37:47.933Z,13.59
2017-03-31T00:38:47.871Z,13.54
2017-03-31T00:39:47.856Z,13.61
2017-03-31T00:40:48.044Z,13.59
2017-03-31T00:41:48.034Z,13.61
2017-03-31T00:42:47.815Z,13.62
2017-03-31T00:43:47.809Z,13.62
2017-03-31T00:44:47.792Z,13.61
2017-03-31T00:45:47.778Z,13.55
2017-03-31T00:46:47.457Z,13.62
2017-03-31T00:47:47.455Z,13.62
2017-03-31T00:48:47.741Z,13.61
2017-03-31T00:49:47.416Z,13.56
2017-03-31T00:50:47.089Z,13.62
2017-03-31T00:51:47.420Z,13.62
2017-03-31T00:52:47.696Z,13.61
2017-03-31T00:53:47.049Z,13.62
2017-03-31T00:54:47.041Z,13.49
2017-03-31T00:55:47.340Z,13.58
2017-03-31T00:56:47.637Z,13.62
2017-03-31T00:57:47.314Z,13.52
2017-03-31T00:58:47.613Z,13.54
2017-03-31T00:59:47.287Z,13.54
2017-03-31T01:00:47.280Z,13.63
2017-03-31T01:01:47.258Z,13.62
2017-03-31T01:02:47.247Z,13.65
2017-03-31T01:03:47.238Z,13.58
2017-03-31T01:04:47.226Z,13.49
2017-03-31T01:05:47.531Z,13.55
2017-03-31T01:06:47.512Z,13.58
2017-03-31T01:07:47.497Z,13.55
2017-03-31T01:08:47.487Z,13.54
2017-03-31T01:09:47.470Z,13.56
2017-03-31T01:10:47.143Z,13.47
2017-03-31T01:11:47.132Z,13.54
2017-03-31T01:12:47.436Z,13.54
2017-03-31T01:13:47.417Z,13.49
2017-03-31T01:14:47.410Z,13.49
2017-03-31T01:15:47.394Z,13.52
2017-03-31T01:16:47.382Z,13.46
2017-03-31T01:17:47.367Z,13.47
2017-03-31T01:18:47.359Z,13.43
2017-03-31T01:19:47.349Z,13.49
2017-03-31T01:20:47.334Z,13.46
2017-03-31T01:21:47.318Z,13.44
2017-03-31T01:22:47.305Z,13.41
2017-03-31T01:23:47.289Z,13.37
2017-03-31T01:24:47.273Z,13.3
2017-03-31T01:25:46.953Z,13.47
2017-03-31T01:26:47.251Z,13.32
2017-03-31T01:27:47.241Z,13.37
2017-03-31T01:28:47.226Z,13.37
2017-03-31T01:29:47.262Z,13.4
2017-03-31T01:30:47.198Z,13.33
2017-03-31T01:31:47.185Z,13.36
2017-03-31T01:32:47.180Z,13.37
2017-03-31T01:33:47.163Z,13.36
2017-03-31T01:34:47.148Z,13.37
2017-03-31T01:35:47.134Z,13.36
2017-03-31T01:36:47.119Z,13.36
2017-03-31T01:37:47.112Z,13.32
2017-03-31T01:38:47.095Z,13.36
2017-03-31T01:39:47.084Z,13.29
2017-03-31T01:40:47.070Z,13.25
2017-03-31T01:41:47.057Z,13.29
2017-03-31T01:42:47.048Z,13.27
2017-03-31T01:43:47.032Z,13.27
2017-03-31T01:44:47.022Z,13.29
2017-03-31T01:45:47.007Z,13.33
2017-03-31T01:46:46.994Z,13.22
2017-03-31T01:47:46.978Z,13.2
2017-03-31T01:48:46.969Z,13.22
2017-03-31T01:49:46.955Z,13.18
2017-03-31T01:50:46.952Z,13.21
2017-03-31T01:51:46.942Z,13.22
2017-03-31T01:52:46.923Z,13.18
2017-03-31T01:53:46.901Z,13.17
2017-03-31T01:54:46.895Z,13.18
2017-03-31T01:55:46.876Z,13.25
2017-03-31T01:56:46.865Z,13.18
2017-03-31T01:57:46.846Z,13.21
2017-03-31T01:58:46.839Z,13.22
2017-03-31T01:59:46.825Z,13.21
2017-03-31T02:00:46.503Z,13.17
2017-03-31T02:01:46.484Z,13.14
2017-03-31T02:02:46.784Z,13.21
2017-03-31T02:03:46.776Z,13.17
2017-03-31T02:04:46.757Z,13.12
2017-03-31T02:05:46.748Z,13.15
2017-03-31T02:06:46.740Z,13.17
2017-03-31T02:07:46.720Z,13.09
2017-03-31T02:08:46.394Z,13.17
2017-03-31T02:09:46.691Z,13.11
2017-03-31T02:10:46.682Z,13.06
2017-03-31T02:11:46.672Z,13.21
2017-03-31T02:12:46.657Z,13.18
2017-03-31T02:13:46.637Z,13.11
2017-03-31T02:14:46.308Z,13.17
2017-03-31T02:15:46.301Z,13.07
2017-03-31T02:16:46.599Z,13.11
2017-03-31T02:17:46.591Z,13.07
2017-03-31T02:18:46.572Z,13.06
2017-03-31T02:19:46.562Z,13.12
2017-03-31T02:20:46.548Z,13.06
2017-03-31T02:21:46.535Z,12.97
2017-03-31T02:22:46.216Z,13
2017-03-31T02:23:46.509Z,12.96
2017-03-31T02:24:46.513Z,13
2017-03-31T02:25:46.177Z,12.89
2017-03-31T02:26:46.473Z,12.87
2017-03-31T02:27:46.455Z,12.92
2017-03-31T02:28:46.478Z,12.88
2017-03-31T02:29:46.432Z,12.84
2017-03-31T02:30:46.468Z,12.75
2017-03-31T02:31:46.094Z,12.78
2017-03-31T02:32:45.766Z,12.75
2017-03-31T02:33:46.383Z,12.7
2017-03-31T02:34:45.736Z,12.66
2017-03-31T02:35:46.354Z,12.66
2017-03-31T02:36:46.338Z,12.67
2017-03-31T02:37:45.696Z,12.66
2017-03-31T02:38:46.330Z,12.69
2017-03-31T02:39:46.327Z,12.67
2017-03-31T02:40:46.484Z,12.62
2017-03-31T02:41:45.964Z,12.54
2017-03-31T02:42:46.308Z,12.57
2017-03-31T02:43:46.243Z,12.6
2017-03-31T02:44:45.919Z,12.62
2017-03-31T02:45:46.222Z,12.54
2017-03-31T02:46:46.206Z,12.46
2017-03-31T02:47:45.877Z,12.52
2017-03-31T02:48:46.173Z,12.56
2017-03-31T02:49:45.857Z,12.45
2017-03-31T02:50:45.839Z,12.48
2017-03-31T02:51:45.825Z,12.51
2017-03-31T02:52:45.808Z,12.39
2017-03-31T02:53:46.106Z,12.46
2017-03-31T02:54:46.102Z,12.45
2017-03-31T02:55:46.089Z,12.54
2017-03-31T02:56:45.771Z,12.46
2017-03-31T02:57:46.061Z,12.49
2017-03-31T02:58:46.044Z,12.49
2017-03-31T02:59:46.026Z,12.48
2017-03-31T03:00:45.701Z,12.48
2017-03-31T03:01:46.053Z,12.39
2017-03-31T03:02:45.991Z,12.37
2017-03-31T03:03:45.969Z,12.44
2017-03-31T03:04:45.653Z,12.39
2017-03-31T03:05:45.947Z,12.42
2017-03-31T03:06:45.938Z,12.33
2017-03-31T03:07:45.919Z,12.37
2017-03-31T03:08:45.591Z,12.37
2017-03-31T03:09:45.891Z,12.34
2017-03-31T03:10:45.930Z,12.38
2017-03-31T03:11:45.862Z,12.38
2017-03-31T03:12:45.850Z,12.41
2017-03-31T03:13:45.527Z,12.38
2017-03-31T03:14:45.824Z,12.34
2017-03-31T03:15:45.812Z,12.44
2017-03-31T03:16:45.799Z,12.41
2017-03-31T03:17:45.791Z,12.46
2017-03-31T03:18:45.774Z,12.37
2017-03-31T03:19:45.813Z,12.48
2017-03-31T03:20:45.747Z,12.48
2017-03-31T03:21:45.731Z,12.46
2017-03-31T03:22:45.400Z,12.34
2017-03-31T03:23:45.701Z,12.52
2017-03-31T03:24:45.602Z,12.46
2017-03-31T03:25:45.360Z,12.49
2017-03-31T03:26:45.668Z,12.48
2017-03-31T03:27:45.331Z,12.49
2017-03-31T03:28:45.632Z,12.41
2017-03-31T03:29:45.617Z,12.49
2017-03-31T03:30:45.290Z,12.49
2017-03-31T03:31:45.590Z,12.45
2017-03-31T03:32:45.471Z,12.48
2017-03-31T03:33:45.564Z,12.48
2017-03-31T03:34:45.550Z,12.51
2017-03-31T03:35:45.539Z,12.42
2017-03-31T03:36:45.523Z,12.42
2017-03-31T03:37:45.506Z,12.42
2017-03-31T03:38:45.499Z,12.39
2017-03-31T03:39:45.493Z,12.39
2017-03-31T03:40:45.468Z,12.42
2017-03-31T03:41:45.456Z,12.34
2017-03-31T03:42:45.441Z,12.38
2017-03-31T03:43:45.426Z,12.29
2017-03-31T03:44:45.099Z,12.27
2017-03-31T03:45:45.404Z,12.26
2017-03-31T03:46:45.387Z,12.24
2017-03-31T03:47:45.056Z,12.19
2017-03-31T03:48:45.358Z,12.19
2017-03-31T03:49:45.343Z,12.23
2017-03-31T03:50:45.327Z,12.09
2017-03-31T03:51:45.002Z,12.05
2017-03-31T03:52:45.301Z,12.06
2017-03-31T03:53:45.293Z,12.08
2017-03-31T03:54:45.270Z,12.02
2017-03-31T03:55:45.261Z,12.05
2017-03-31T03:56:45.249Z,12.01
2017-03-31T03:57:45.231Z,11.99
2017-03-31T03:58:45.226Z,11.96
2017-03-31T03:59:45.256Z,11.97
2017-03-31T04:00:44.890Z,11.89
2017-03-31T04:01:45.179Z,11.97
2017-03-31T04:02:45.167Z,11.96
2017-03-31T04:03:45.150Z,11.85
2017-03-31T04:04:45.142Z,11.97
2017-03-31T04:05:45.122Z,11.86
2017-03-31T04:06:45.107Z,11.9
2017-03-31T04:07:45.097Z,11.89
2017-03-31T04:08:45.078Z,11.93
2017-03-31T04:09:45.068Z,11.93
2017-03-31T04:10:45.054Z,11.85
2017-03-31T04:11:44.766Z,11.94
2017-03-31T04:12:45.025Z,11.96
2017-03-31T04:13:45.010Z,11.86
2017-03-31T04:14:44.999Z,11.85
2017-03-31T04:15:44.981Z,11.75
2017-03-31T04:16:44.973Z,11.87
2017-03-31T04:17:44.954Z,11.83
2017-03-31T04:18:44.941Z,11.8
2017-03-31T04:19:44.933Z,11.68
2017-03-31T04:20:44.917Z,11.7
2017-03-31T04:21:44.902Z,11.7
2017-03-31T04:22:44.886Z,11.71
2017-03-31T04:23:44.870Z,11.62
2017-03-31T04:24:44.859Z,11.59
2017-03-31T04:25:44.845Z,11.5
2017-03-31T04:26:44.519Z,11.54
2017-03-31T04:27:44.200Z,11.49
2017-03-31T04:28:44.801Z,11.56
2017-03-31T04:29:44.790Z,11.53
2017-03-31T04:30:44.774Z,11.54
2017-03-31T04:31:44.759Z,11.5
2017-03-31T04:32:44.747Z,11.49
2017-03-31T04:33:44.422Z,11.32
2017-03-31T04:34:44.727Z,11.38
2017-03-31T04:35:44.393Z,11.38
2017-03-31T04:36:44.711Z,11.38
2017-03-31T04:37:44.365Z,11.35
2017-03-31T04:38:44.663Z,11.34
2017-03-31T04:39:44.647Z,11.31
2017-03-31T04:40:44.836Z,11.29
2017-03-31T04:41:44.304Z,11.32
2017-03-31T04:42:44.602Z,11.21
2017-03-31T04:43:44.291Z,11.2
2017-03-31T04:44:44.586Z,11.21
2017-03-31T04:45:44.252Z,11.14
2017-03-31T04:46:44.549Z,11.09
2017-03-31T04:47:44.537Z,11.1
2017-03-31T04:48:44.522Z,11.19
2017-03-31T04:49:44.193Z,11.21
2017-03-31T04:50:44.176Z,11.2
2017-03-31T04:51:44.162Z,11.21
2017-03-31T04:52:44.462Z,11.21
2017-03-31T04:53:44.139Z,11.25
2017-03-31T04:54:44.435Z,11.31
2017-03-31T04:55:44.421Z,11.27
2017-03-31T04:56:44.412Z,11.27
2017-03-31T04:57:44.392Z,11.29
2017-03-31T04:58:44.377Z,11.31
2017-03-31T04:59:44.417Z,11.31
2017-03-31T05:00:44.354Z,11.29
2017-03-31T05:01:44.336Z,11.29
2017-03-31T05:02:43.696Z,11.35
2017-03-31T05:03:44.311Z,11.39
2017-03-31T05:04:44.291Z,11.38
2017-03-31T05:05:44.329Z,11.43
2017-03-31T05:06:43.947Z,11.34
2017-03-31T05:07:44.333Z,11.44
2017-03-31T05:08:44.236Z,11.46
2017-03-31T05:09:44.220Z,11.41
2017-03-31T05:10:44.211Z,11.52
2017-03-31T05:11:44.193Z,11.56
2017-03-31T05:12:44.378Z,11.52
2017-03-31T05:13:44.165Z,11.47
2017-03-31T05:14:44.146Z,11.52
2017-03-31T05:15:43.820Z,11.64
2017-03-31T05:16:44.123Z,11.53
2017-03-31T05:17:43.794Z,11.64
2017-03-31T05:18:43.777Z,11.62
2017-03-31T05:19:44.079Z,11.62
2017-03-31T05:20:44.068Z,11.64
2017-03-31T05:21:43.741Z,11.68
2017-03-31T05:22:43.720Z,11.62
2017-03-31T05:23:43.397Z,11.61
2017-03-31T05:24:43.691Z,11.64
2017-03-31T05:25:43.675Z,11.68
2017-03-31T05:26:43.671Z,11.75
2017-03-31T05:27:43.337Z,11.85
2017-03-31T05:28:43.948Z,11.83
2017-03-31T05:29:43.308Z,11.82
2017-03-31T05:30:43.920Z,11.8
2017-03-31T05:31:43.914Z,11.78
2017-03-31T05:32:43.576Z,11.93
2017-03-31T05:33:43.575Z,11.94
2017-03-31T05:34:43.552Z,11.93
2017-03-31T05:35:43.852Z,11.89
2017-03-31T05:36:43.832Z,11.89
2017-03-31T05:37:43.199Z,11.93
2017-03-31T05:38:43.808Z,11.94
2017-03-31T05:39:43.802Z,11.93
2017-03-31T05:40:43.468Z,12.06
2017-03-31T05:41:43.456Z,12.04
2017-03-31T05:42:43.753Z,12.02
2017-03-31T05:43:43.736Z,12.01
2017-03-31T05:44:43.725Z,12.11
2017-03-31T05:45:43.712Z,12.12
2017-03-31T05:46:43.695Z,12.19
2017-03-31T05:47:43.687Z,12.2
2017-03-31T05:48:43.720Z,12.19
2017-03-31T05:49:43.649Z,12.19
2017-03-31T05:50:43.653Z,12.13
2017-03-31T05:51:43.630Z,12.26
2017-03-31T05:52:43.617Z,12.26
2017-03-31T05:53:43.282Z,12.27
2017-03-31T05:54:43.301Z,12.24
2017-03-31T05:55:43.574Z,12.23
2017-03-31T05:56:43.245Z,12.23
2017-03-31T05:57:43.542Z,12.38
2017-03-31T05:58:43.532Z,12.3
2017-03-31T05:59:43.520Z,12.3
2017-03-31T06:00:43.502Z,12.33
2017-03-31T06:01:43.497Z,12.41
2017-03-31T06:02:43.478Z,12.38
2017-03-31T06:03:43.152Z,12.48
2017-03-31T06:04:43.141Z,12.45
2017-03-31T06:05:43.128Z,12.49
2017-03-31T06:06:43.424Z,12.56
2017-03-31T06:07:43.420Z,12.44
2017-03-31T06:08:43.397Z,12.57
2017-03-31T06:09:43.067Z,12.69
2017-03-31T06:10:43.373Z,12.64
2017-03-31T06:11:43.353Z,12.77
2017-03-31T06:12:43.339Z,12.84
2017-03-31T06:13:43.015Z,12.88
2017-03-31T06:14:43.312Z,12.89
2017-03-31T06:15:42.987Z,12.84
2017-03-31T06:16:42.979Z,12.96
2017-03-31T06:17:43.277Z,13.02
2017-03-31T06:18:42.946Z,12.97
2017-03-31T06:19:43.253Z,13.12
2017-03-31T06:20:42.924Z,13.12
2017-03-31T06:21:43.219Z,13.12
2017-03-31T06:22:42.894Z,13.21
2017-03-31T06:23:42.882Z,13.09
2017-03-31T06:24:43.182Z,13.24
2017-03-31T06:25:43.165Z,13.24
2017-03-31T06:26:43.211Z,13.25
2017-03-31T06:27:43.139Z,13.27
2017-03-31T06:28:43.129Z,13.3
2017-03-31T06:29:43.118Z,13.27
2017-03-31T06:30:43.102Z,13.33
2017-03-31T06:31:43.103Z,13.44
2017-03-31T06:32:43.087Z,13.36
2017-03-31T06:33:43.063Z,13.41
2017-03-31T06:34:43.048Z,13.49
2017-03-31T06:35:43.051Z,13.58
2017-03-31T06:36:43.025Z,13.62
2017-03-31T06:37:43.029Z,13.65
2017-03-31T06:38:42.994Z,13.77
2017-03-31T06:39:42.993Z,13.84
2017-03-31T06:40:43.178Z,13.79
2017-03-31T06:41:42.962Z,13.98
2017-03-31T06:42:42.950Z,14.01
2017-03-31T06:43:42.315Z,14.12
2017-03-31T06:44:42.614Z,14.12
2017-03-31T06:45:42.914Z,14.29
2017-03-31T06:46:42.588Z,14.35
2017-03-31T06:47:42.580Z,14.43
2017-03-31T06:48:42.877Z,14.54
2017-03-31T06:49:42.891Z,14.71
2017-03-31T06:50:42.539Z,14.8
2017-03-31T06:51:42.842Z,14.86
2017-03-31T06:52:42.828Z,14.93
2017-03-31T06:53:42.817Z,14.99
2017-03-31T06:54:42.803Z,14.94
2017-03-31T06:55:42.793Z,15.12
2017-03-31T06:56:42.784Z,15.09
2017-03-31T06:57:42.769Z,15.21
2017-03-31T06:58:42.756Z,15.27
2017-03-31T06:59:42.745Z,15.36
2017-03-31T07:00:42.731Z,15.38
2017-03-31T07:01:42.725Z,15.41
2017-03-31T07:02:42.705Z,15.51
2017-03-31T07:03:42.443Z,15.54
2017-03-31T07:04:42.693Z,15.57
2017-03-31T07:05:42.678Z,15.6
2017-03-31T07:06:42.042Z,15.6
2017-03-31T07:07:42.657Z,15.68
2017-03-31T07:08:42.641Z,15.66
2017-03-31T07:09:42.322Z,15.74
2017-03-31T07:10:42.625Z,15.72
2017-03-31T07:11:42.301Z,15.82
2017-03-31T07:12:42.597Z,15.88
2017-03-31T07:13:42.586Z,15.94
2017-03-31T07:14:42.578Z,16.06
2017-03-31T07:15:42.565Z,16.04
2017-03-31T07:16:42.569Z,16.14
2017-03-31T07:17:42.546Z,16.23
2017-03-31T07:18:42.534Z,16.33
2017-03-31T07:19:42.723Z,16.41
2017-03-31T07:20:42.512Z,16.53
2017-03-31T07:21:42.510Z,16.52
2017-03-31T07:22:42.494Z,16.49
2017-03-31T07:23:42.480Z,16.59
2017-03-31T07:24:42.469Z,16.74
2017-03-31T07:25:42.504Z,16.78
2017-03-31T07:26:42.447Z,16.88
2017-03-31T07:27:42.434Z,16.89
2017-03-31T07:28:42.424Z,16.9
2017-03-31T07:29:42.098Z,17
2017-03-31T07:30:42.093Z,16.99
2017-03-31T07:31:42.393Z,16.96
2017-03-31T07:32:42.385Z,17.03
2017-03-31T07:33:42.371Z,16.96
2017-03-31T07:34:42.366Z,17.1
2017-03-31T07:35:42.353Z,17.08
2017-03-31T07:36:42.341Z,17.14
2017-03-31T07:37:42.330Z,17.18
2017-03-31T07:38:42.016Z,17.25
2017-03-31T07:39:42.318Z,17.29
2017-03-31T07:40:42.299Z,17.3
2017-03-31T07:41:42.294Z,17.36
2017-03-31T07:42:42.279Z,17.43
2017-03-31T07:43:42.278Z,17.47
2017-03-31T07:44:42.260Z,17.55
2017-03-31T07:45:41.939Z,17.62
2017-03-31T07:46:41.936Z,17.74
2017-03-31T07:47:41.944Z,17.79
2017-03-31T07:48:42.239Z,17.82
2017-03-31T07:49:41.895Z,17.92
2017-03-31T07:50:41.897Z,18.1
2017-03-31T07:51:42.194Z,18.19
2017-03-31T07:52:41.866Z,18.13
2017-03-31T07:53:42.177Z,18.18
2017-03-31T07:54:41.851Z,18.24
2017-03-31T07:55:41.846Z,18.36
2017-03-31T07:56:42.151Z,18.44
2017-03-31T07:57:42.180Z,18.46
2017-03-31T07:58:41.811Z,18.44
2017-03-31T07:59:42.173Z,18.64
2017-03-31T08:00:42.103Z,18.64
2017-03-31T08:01:41.794Z,18.68
2017-03-31T08:02:42.092Z,18.73
2017-03-31T08:03:42.077Z,18.72
2017-03-31T08:04:41.769Z,18.84
2017-03-31T08:05:41.433Z,18.91
2017-03-31T08:06:42.049Z,18.91
2017-03-31T08:07:42.042Z,18.83
2017-03-31T08:08:41.721Z,19.01
2017-03-31T08:09:42.023Z,19.01
2017-03-31T08:10:41.703Z,19.1
2017-03-31T08:11:41.696Z,19.05
2017-03-31T08:12:41.682Z,19.15
2017-03-31T08:13:41.670Z,19.18
2017-03-31T08:14:41.994Z,19.17
2017-03-31T08:15:41.655Z,19.24
2017-03-31T08:16:41.653Z,19.33
2017-03-31T08:17:41.952Z,19.33
2017-03-31T08:18:41.950Z,19.53
2017-03-31T08:19:41.939Z,19.66
2017-03-31T08:20:41.930Z,19.93
2017-03-31T08:21:41.925Z,19.91
2017-03-31T08:22:41.927Z,20.23
2017-03-31T08:23:41.910Z,20.41
2017-03-31T08:24:41.583Z,20.38
2017-03-31T08:25:41.583Z,20.41
2017-03-31T08:26:41.571Z,20.61
2017-03-31T08:27:41.877Z,20.65
2017-03-31T08:28:41.868Z,20.69
2017-03-31T08:29:41.859Z,20.69
2017-03-31T08:30:41.850Z,20.79
2017-03-31T08:31:41.859Z,20.69
2017-03-31T08:32:41.835Z,20.65
2017-03-31T08:33:41.514Z,20.91
2017-03-31T08:34:41.511Z,21.08
2017-03-31T08:35:41.821Z,21.09
2017-03-31T08:36:41.502Z,21.26
2017-03-31T08:37:41.813Z,21.08
2017-03-31T08:38:41.801Z,21.26
2017-03-31T08:39:41.497Z,21.21
2017-03-31T08:40:41.784Z,20.93
2017-03-31T08:41:41.785Z,20.87
2017-03-31T08:42:41.784Z,20.83
2017-03-31T08:43:41.453Z,20.83
2017-03-31T08:44:41.776Z,20.86
2017-03-31T08:45:41.748Z,20.87
2017-03-31T08:46:41.430Z,20.74
2017-03-31T08:47:41.423Z,20.84
2017-03-31T08:48:41.423Z,20.68
2017-03-31T08:49:41.745Z,20.56
2017-03-31T08:50:41.405Z,20.66
2017-03-31T08:51:41.400Z,20.65
2017-03-31T08:52:41.401Z,20.54
2017-03-31T08:53:41.700Z,20.43
2017-03-31T08:54:41.898Z,20.43
2017-03-31T08:55:41.684Z,20.47
2017-03-31T08:56:41.681Z,20.46
2017-03-31T08:57:41.671Z,20.54
2017-03-31T08:58:41.664Z,20.42
2017-03-31T08:59:41.659Z,20.39
2017-03-31T09:00:41.652Z,20.41
2017-03-31T09:01:41.353Z,20.41
2017-03-31T09:02:41.645Z,20.65
2017-03-31T09:03:41.005Z,20.76
2017-03-31T09:04:41.629Z,20.87
2017-03-31T09:05:41.623Z,21.08
2017-03-31T09:06:41.619Z,20.93
2017-03-31T09:07:41.606Z,21.16
2017-03-31T09:08:41.597Z,20.96
2017-03-31T09:09:41.645Z,21.2
2017-03-31T09:10:41.606Z,21.24
2017-03-31T09:11:41.587Z,21.34
2017-03-31T09:12:41.573Z,21.45
2017-03-31T09:13:41.566Z,21.56
2017-03-31T09:14:41.561Z,21.59
2017-03-31T09:15:41.555Z,21.56
2017-03-31T09:16:41.565Z,21.54
2017-03-31T09:17:41.545Z,21.54
2017-03-31T09:18:41.536Z,21.45
2017-03-31T09:19:41.532Z,21.54
2017-03-31T09:20:41.527Z,21.59
2017-03-31T09:21:41.521Z,21.54
2017-03-31T09:22:41.518Z,21.6
2017-03-31T09:23:41.557Z,21.74
2017-03-31T09:24:41.516Z,21.69
2017-03-31T09:25:41.494Z,21.75
2017-03-31T09:26:41.539Z,21.72
2017-03-31T09:27:41.493Z,21.48
2017-03-31T09:28:41.482Z,21.6
2017-03-31T09:29:41.175Z,21.69
2017-03-31T09:30:41.472Z,21.63
2017-03-31T09:31:41.468Z,21.74
2017-03-31T09:32:41.458Z,21.83
2017-03-31T09:33:41.452Z,21.95
2017-03-31T09:34:41.452Z,22.02
2017-03-31T09:35:41.129Z,22.14
2017-03-31T09:36:41.440Z,22.31
2017-03-31T09:37:41.126Z,22.44
2017-03-31T09:38:41.425Z,22.37
2017-03-31T09:39:41.626Z,22.31
2017-03-31T09:40:41.427Z,22.53
2017-03-31T09:41:41.413Z,22.29
2017-03-31T09:42:41.101Z,22.35
2017-03-31T09:43:41.092Z,22.09
2017-03-31T09:44:40.819Z,22.22
2017-03-31T09:45:41.391Z,22.22
2017-03-31T09:46:41.390Z,22.02
2017-03-31T09:47:41.385Z,22.02
2017-03-31T09:48:41.378Z,22.19
2017-03-31T09:49:41.062Z,22.32
2017-03-31T09:50:41.368Z,22.04
2017-03-31T09:51:41.373Z,22.09
2017-03-31T09:52:41.357Z,22.07
2017-03-31T09:53:41.350Z,22.06
2017-03-31T09:54:41.031Z,22.22
2017-03-31T09:55:41.346Z,22.37
2017-03-31T09:56:41.336Z,22.59
2017-03-31T09:57:41.332Z,22.71
2017-03-31T09:58:41.329Z,22.94
2017-03-31T09:59:41.329Z,22.67
2017-03-31T10:00:41.323Z,22.62
2017-03-31T10:01:41.314Z,22.6
2017-03-31T10:02:41.338Z,22.71
2017-03-31T10:03:41.304Z,22.64
2017-03-31T10:04:40.999Z,22.69
2017-03-31T10:05:41.313Z,22.74
2017-03-31T10:06:40.987Z,22.87
2017-03-31T10:07:40.990Z,23.07
2017-03-31T10:08:41.286Z,23.24
2017-03-31T10:09:41.278Z,22.87
2017-03-31T10:10:41.276Z,22.75
2017-03-31T10:11:41.269Z,22.78
2017-03-31T10:12:41.274Z,22.77
2017-03-31T10:13:41.257Z,22.64
2017-03-31T10:14:41.259Z,22.77
2017-03-31T10:15:41.251Z,22.83
2017-03-31T10:16:41.247Z,22.97
2017-03-31T10:17:41.245Z,23.15
2017-03-31T10:18:41.234Z,23.42
2017-03-31T10:19:41.243Z,23.38
2017-03-31T10:20:41.230Z,23.09
2017-03-31T10:21:41.273Z,23.04
2017-03-31T10:22:41.218Z,22.97
2017-03-31T10:23:41.217Z,22.87
2017-03-31T10:24:41.212Z,22.74
2017-03-31T10:25:41.210Z,22.92
2017-03-31T10:26:41.208Z,22.84
2017-03-31T10:27:41.198Z,22.93
2017-03-31T10:28:40.877Z,22.99
2017-03-31T10:29:41.185Z,23.11
2017-03-31T10:30:41.182Z,23.2
2017-03-31T10:31:41.177Z,23.4
2017-03-31T10:32:41.170Z,23.45
2017-03-31T10:33:41.168Z,23.62
2017-03-31T10:34:41.164Z,23.82
2017-03-31T10:35:40.854Z,23.82
2017-03-31T10:36:41.157Z,23.89
2017-03-31T10:37:41.154Z,23.87
2017-03-31T10:38:41.146Z,23.98
2017-03-31T10:39:41.145Z,23.83
2017-03-31T10:40:41.211Z,23.77
2017-03-31T10:41:41.335Z,23.43
2017-03-31T10:42:41.165Z,23.29
2017-03-31T10:43:41.126Z,23.09
2017-03-31T10:44:41.125Z,22.94
2017-03-31T10:45:41.120Z,22.75
2017-03-31T10:46:41.120Z,22.75
2017-03-31T10:47:41.110Z,22.72
2017-03-31T10:48:40.795Z,22.86
2017-03-31T10:49:41.105Z,23.09
2017-03-31T10:50:41.095Z,23.23
2017-03-31T10:51:40.776Z,23.46
2017-03-31T10:52:41.083Z,23.57
2017-03-31T10:53:41.111Z,23.53
2017-03-31T10:54:41.076Z,23.72
2017-03-31T10:55:41.078Z,23.82
2017-03-31T10:56:41.068Z,23.76
2017-03-31T10:57:41.068Z,23.65
2017-03-31T10:58:41.057Z,23.49
2017-03-31T10:59:41.066Z,23.45
2017-03-31T11:00:41.050Z,23.38
2017-03-31T11:01:41.050Z,23.14
2017-03-31T11:02:41.042Z,23.15
2017-03-31T11:03:41.043Z,22.97
2017-03-31T11:04:41.038Z,23.15
2017-03-31T11:05:41.278Z,23.38
2017-03-31T11:06:41.025Z,23.61
2017-03-31T11:07:41.023Z,23.97
2017-03-31T11:08:41.017Z,23.97
2017-03-31T11:09:40.404Z,23.95
2017-03-31T11:10:40.701Z,23.92
2017-03-31T11:11:41.011Z,23.92
2017-03-31T11:12:41.002Z,24.01
2017-03-31T11:13:40.999Z,24.01
2017-03-31T11:14:40.993Z,23.97
2017-03-31T11:15:40.680Z,23.8
2017-03-31T11:16:40.986Z,23.77
2017-03-31T11:17:40.982Z,23.8
2017-03-31T11:18:40.971Z,23.94
2017-03-31T11:19:40.969Z,24.14
2017-03-31T11:20:40.972Z,24.27
2017-03-31T11:21:40.962Z,24.42
2017-03-31T11:22:40.964Z,24.34
2017-03-31T11:23:40.951Z,24.35
2017-03-31T11:24:40.949Z,24.16
2017-03-31T11:25:41.147Z,24.35
2017-03-31T11:26:40.942Z,24.67
2017-03-31T11:27:40.938Z,24.98
2017-03-31T11:28:40.954Z,25.28
2017-03-31T11:29:40.934Z,25.68
2017-03-31T11:30:40.936Z,25.82
2017-03-31T11:31:40.924Z,25.57
2017-03-31T11:32:40.922Z,25.44
2017-03-31T11:33:40.923Z,25.5
2017-03-31T11:34:40.611Z,25.83
2017-03-31T11:35:40.967Z,26.15
2017-03-31T11:36:40.925Z,26.21
2017-03-31T11:37:40.609Z,26.52
2017-03-31T11:38:40.917Z,26.54
2017-03-31T11:39:40.908Z,26.37
2017-03-31T11:40:40.924Z,25.83
2017-03-31T11:41:40.600Z,25.47
2017-03-31T11:42:40.612Z,25.34
2017-03-31T11:43:40.916Z,25.2
2017-03-31T11:44:40.929Z,25.19
2017-03-31T11:45:40.917Z,25.54
2017-03-31T11:46:40.912Z,25.68
2017-03-31T11:47:40.601Z,25.94
2017-03-31T11:48:40.599Z,26.05
2017-03-31T11:49:40.916Z,26.28
2017-03-31T11:50:40.907Z,26.17
2017-03-31T11:51:40.964Z,26.46
2017-03-31T11:52:40.910Z,26.25
2017-03-31T11:53:40.608Z,26.47
2017-03-31T11:54:40.915Z,25.77
2017-03-31T11:55:40.606Z,26.09
2017-03-31T11:56:40.912Z,26.04
2017-03-31T11:57:40.286Z,26.25
2017-03-31T11:58:40.916Z,26.02
2017-03-31T11:59:40.914Z,25.87
2017-03-31T12:00:40.621Z,25.77
2017-03-31T12:01:40.917Z,25.98
2017-03-31T12:02:40.919Z,26.15
2017-03-31T12:03:40.914Z,25.8
2017-03-31T12:04:40.914Z,25.83
2017-03-31T12:05:40.924Z,25.65
2017-03-31T12:06:40.606Z,25.53
2017-03-31T12:07:40.917Z,25.62
2017-03-31T12:08:40.601Z,25.99
2017-03-31T12:09:40.920Z,26.37
2017-03-31T12:10:40.604Z,26.79
2017-03-31T12:11:40.604Z,26.94
2017-03-31T12:12:40.603Z,27.17
2017-03-31T12:13:40.918Z,27.16
2017-03-31T12:14:40.916Z,27.23
2017-03-31T12:15:40.916Z,26.92
2017-03-31T12:16:40.954Z,26.72
2017-03-31T12:17:40.607Z,26.65
2017-03-31T12:18:40.608Z,27.05
2017-03-31T12:19:40.922Z,26.42
2017-03-31T12:20:40.924Z,26.39
2017-03-31T12:21:40.921Z,26.31
2017-03-31T12:22:40.607Z,26.32
2017-03-31T12:23:40.605Z,26.87
2017-03-31T12:24:40.922Z,26.68
2017-03-31T12:25:40.605Z,27.16
2017-03-31T12:26:40.979Z,27.02
2017-03-31T12:27:40.928Z,27.17
2017-03-31T12:28:40.612Z,27.01
2017-03-31T12:29:40.935Z,27.48
2017-03-31T12:30:40.929Z,27.58
2017-03-31T12:31:40.625Z,27.98
2017-03-31T12:32:40.936Z,27.99
2017-03-31T12:33:41.132Z,28.19
2017-03-31T12:34:40.627Z,28.53
2017-03-31T12:35:40.934Z,28.72
2017-03-31T12:36:40.936Z,28.95
2017-03-31T12:37:40.933Z,28.69
2017-03-31T12:38:40.941Z,28.72
2017-03-31T12:39:40.946Z,28.28
2017-03-31T12:40:40.954Z,28.03
2017-03-31T12:41:41.363Z,27.43
2017-03-31T12:42:40.957Z,26.76
2017-03-31T12:43:40.948Z,26.95
2017-03-31T12:44:40.649Z,26.84
2017-03-31T12:45:40.960Z,27.14
2017-03-31T12:46:40.655Z,26.94
2017-03-31T12:47:40.670Z,27.17
2017-03-31T12:48:40.958Z,27.05
2017-03-31T12:49:40.652Z,27.21
2017-03-31T12:50:40.968Z,27.23
2017-03-31T12:51:40.967Z,27.28
2017-03-31T12:52:40.966Z,27.7
2017-03-31T12:53:40.659Z,27.2
2017-03-31T12:54:40.980Z,27.5